URWWOPPS

Guest
Details From URWW - Gumrak
To OPPS - Peshawar Intl
Flight Number -
Tags Generated
Created
Modified
Stats Distance 1,499 nm / 2,776 km
Max Altitude 0 ft / 0 m
Waypoints 4
Social Downloads 0
Likes 0
Share VATSIM

Download

Looking for another format? Having issues loading an existing format? Contact us
Advertisement - Login to hide

Notes

Generated

Route

URWW GIRAT MATAR OPPS

ID Type Via Altitude Latitude Longitude Leg Dist Tot Dist Heading (true) Name
O URWW APT - 0 ft / 0 m 48.78224˚ 44.35218˚ - 0 nm - GUMRAK
GIRAT FIX - 0 ft / 0 m 42.37667˚ 59.27833˚ 734 nm 734 nm 116° / 127° -
MATAR FIX - 0 ft / 0 m 34.09972˚ 71.46611˚ 758 nm 1492 nm 127° / 135° -
O OPPS APT - 0 ft / 0 m 34.00601˚ 71.51354˚ 6 nm 1498 nm 157° / 157° -

Altitude Profile

Advertisement - Login to hide

Weather


0- 5 10 15 20 25 30 35+ Temperature / ° C

Clouds and Precipitation
Forecast for 2017-12-16 06:00 UTC. Updated an hour ago

Ground ~20,000 ft ~40,000 ft Winds

URWW

Details ICAO URWW (VOG)
Name GUMRAK
Region Russia
Timezone Europe/Volgograd (UTC+3.0)
Stats Elevation 482 ft / 147 m (AMSL)
Location 48.780630° 44.352696°
Runways 3
Magnetic Variation 9.177° E

METAR

URWW 160200Z 14006MPS 2100 0900NE -FZDZ FZFG VV001 M01/M01 Q1023 R06/320037 NOSIG RMK QBB050 OBST OBSC

Decode

TAF

Not found

Departure Runways

ID Width Length Bearing (true) Bearing (mag) Surface Threshold Offset Overrun Length
08 350 ft / 107 m 1,563 ft / 476 m 84.16° 74.98° Grass 0 ft / 0 m 0 ft / 0 m
11 161 ft / 49 m 8,180 ft / 2,493 m 120.19° 111.01° Asphalt 0 ft / 0 m 150 ft / 46 m
11R 330 ft / 101 m 5,508 ft / 1,679 m 120.08° 110.90° Grass 0 ft / 0 m 0 ft / 0 m
26 350 ft / 107 m 1,563 ft / 476 m 264.16° 254.98° Grass 0 ft / 0 m 0 ft / 0 m
29 161 ft / 49 m 8,180 ft / 2,493 m 300.22° 291.04° Asphalt 0 ft / 0 m 130 ft / 40 m
29L 330 ft / 101 m 5,508 ft / 1,679 m 300.09° 290.91° Grass 0 ft / 0 m 0 ft / 0 m

OPPS

Details ICAO OPPS (PEW)
Name OPPS Peshawar, Peshawar Intl Airport
Region Pakistan
Timezone Asia/Karachi (UTC+5.0)
Stats Elevation 1,158 ft / 353 m (AMSL)
Location 33.993911° 71.514581°
Runways 1
Magnetic Variation 2.836° E

METAR

OPPS 160200Z 13004KT 4000 HZ FEW100 05/01 Q1025

Decode

TAF

Not found

Destination Runways

ID Width Length Bearing (true) Bearing (mag) Surface Threshold Offset Overrun Length
17 151 ft / 46 m 9,008 ft / 2,746 m 176.00° 173.16° Asphalt 0 ft / 0 m 791 ft / 241 m
35 151 ft / 46 m 9,008 ft / 2,746 m 356.00° 353.16° Asphalt 0 ft / 0 m 1,047 ft / 319 m